sensor_id;sensor_type;location;lat;lon;timestamp;P1;durP1;ratioP1;P2;durP2;ratioP2
30249;SDS011;17064;47.974;13.826;2023-01-19T04:02:38;20.15;;;11.27;;
30249;SDS011;17064;47.974;13.826;2023-01-19T04:07:39;22.27;;;12.05;;
30249;SDS011;17064;47.974;13.826;2023-01-19T04:12:40;23.20;;;12.73;;
30249;SDS011;17064;47.974;13.826;2023-01-19T04:17:40;23.75;;;12.23;;
30249;SDS011;17064;47.974;13.826;2023-01-19T04:22:41;26.35;;;13.55;;
30249;SDS011;17064;47.974;13.826;2023-01-19T04:27:42;25.95;;;12.40;;
30249;SDS011;17064;47.974;13.826;2023-01-19T04:32:43;27.67;;;14.18;;
30249;SDS011;17064;47.974;13.826;2023-01-19T04:37:45;28.63;;;14.43;;
30249;SDS011;17064;47.974;13.826;2023-01-19T04:42:46;29.45;;;14.68;;
30249;SDS011;17064;47.974;13.826;2023-01-19T04:47:50;28.35;;;13.85;;
30249;SDS011;17064;47.974;13.826;2023-01-19T04:52:51;27.58;;;14.60;;
30249;SDS011;17064;47.974;13.826;2023-01-19T04:57:52;30.92;;;15.48;;
30249;SDS011;17064;47.974;13.826;2023-01-19T05:02:53;29.38;;;15.02;;
30249;SDS011;17064;47.974;13.826;2023-01-19T05:07:53;30.85;;;15.35;;
30249;SDS011;17064;47.974;13.826;2023-01-19T05:12:54;34.08;;;14.73;;
30249;SDS011;17064;47.974;13.826;2023-01-19T05:17:55;31.05;;;15.38;;
30249;SDS011;17064;47.974;13.826;2023-01-19T05:22:57;34.00;;;15.48;;
30249;SDS011;17064;47.974;13.826;2023-01-19T05:27:57;35.63;;;17.52;;
30249;SDS011;17064;47.974;13.826;2023-01-19T05:32:58;37.40;;;17.98;;
30249;SDS011;17064;47.974;13.826;2023-01-19T05:37:59;32.85;;;15.68;;
30249;SDS011;17064;47.974;13.826;2023-01-19T05:43:00;34.13;;;16.02;;
30249;SDS011;17064;47.974;13.826;2023-01-19T05:48:04;28.05;;;15.02;;
30249;SDS011;17064;47.974;13.826;2023-01-19T05:53:05;32.92;;;15.88;;
30249;SDS011;17064;47.974;13.826;2023-01-19T05:58:06;39.55;;;18.35;;
30249;SDS011;17064;47.974;13.826;2023-01-19T06:03:06;38.45;;;18.10;;
30249;SDS011;17064;47.974;13.826;2023-01-19T06:08:07;38.90;;;18.00;;
30249;SDS011;17064;47.974;13.826;2023-01-19T06:13:08;34.85;;;18.35;;
30249;SDS011;17064;47.974;13.826;2023-01-19T06:18:10;39.20;;;18.33;;
30249;SDS011;17064;47.974;13.826;2023-01-19T06:23:11;43.08;;;19.38;;
30249;SDS011;17064;47.974;13.826;2023-01-19T06:28:12;39.13;;;18.70;;
30249;SDS011;17064;47.974;13.826;2023-01-19T06:33:12;41.08;;;18.58;;
30249;SDS011;17064;47.974;13.826;2023-01-19T06:38:13;40.25;;;19.13;;
30249;SDS011;17064;47.974;13.826;2023-01-19T06:54:54;27.48;;;12.35;;
30249;SDS011;17064;47.974;13.826;2023-01-19T06:59:55;74.10;;;27.63;;
30249;SDS011;17064;47.974;13.826;2023-01-19T07:04:58;28.03;;;13.83;;
30249;SDS011;17064;47.974;13.826;2023-01-19T07:09:58;29.00;;;12.88;;
30249;SDS011;17064;47.974;13.826;2023-01-19T07:14:59;30.65;;;14.35;;
30249;SDS011;17064;47.974;13.826;2023-01-19T07:20:00;30.48;;;13.73;;
30249;SDS011;17064;47.974;13.826;2023-01-19T07:25:02;30.10;;;12.73;;
30249;SDS011;17064;47.974;13.826;2023-01-19T07:30:03;32.20;;;13.50;;
30249;SDS011;17064;47.974;13.826;2023-01-19T07:35:05;26.42;;;13.38;;
30249;SDS011;17064;47.974;13.826;2023-01-19T07:40:06;32.75;;;12.38;;
30249;SDS011;17064;47.974;13.826;2023-01-19T07:45:07;25.80;;;12.82;;
30249;SDS011;17064;47.974;13.826;2023-01-19T07:50:08;35.35;;;15.27;;
30249;SDS011;17064;47.974;13.826;2023-01-19T07:55:10;25.42;;;12.15;;
30249;SDS011;17064;47.974;13.826;2023-01-19T08:00:11;30.75;;;13.15;;
30249;SDS011;17064;47.974;13.826;2023-01-19T08:05:15;23.70;;;11.82;;
30249;SDS011;17064;47.974;13.826;2023-01-19T08:10:16;24.10;;;11.07;;
30249;SDS011;17064;47.974;13.826;2023-01-19T08:15:17;17.92;;;8.70;;
30249;SDS011;17064;47.974;13.826;2023-01-19T08:20:18;18.88;;;9.52;;
30249;SDS011;17064;47.974;13.826;2023-01-19T08:25:22;20.60;;;9.48;;
30249;SDS011;17064;47.974;13.826;2023-01-19T08:30:22;23.33;;;10.63;;
30249;SDS011;17064;47.974;13.826;2023-01-19T08:35:25;23.63;;;10.73;;
30249;SDS011;17064;47.974;13.826;2023-01-19T08:40:27;23.05;;;9.65;;
30249;SDS011;17064;47.974;13.826;2023-01-19T08:45:28;20.05;;;10.07;;
30249;SDS011;17064;47.974;13.826;2023-01-19T08:50:30;23.15;;;10.50;;
30249;SDS011;17064;47.974;13.826;2023-01-19T08:55:32;22.98;;;11.05;;
30249;SDS011;17064;47.974;13.826;2023-01-19T09:00:35;26.60;;;12.47;;
30249;SDS011;17064;47.974;13.826;2023-01-19T09:05:37;25.50;;;13.05;;
30249;SDS011;17064;47.974;13.826;2023-01-19T09:10:42;26.98;;;10.85;;
30249;SDS011;17064;47.974;13.826;2023-01-19T09:15:45;17.02;;;9.43;;
30249;SDS011;17064;47.974;13.826;2023-01-19T09:20:46;17.92;;;9.80;;
30249;SDS011;17064;47.974;13.826;2023-01-19T09:25:54;18.67;;;8.25;;
30249;SDS011;17064;47.974;13.826;2023-01-19T09:30:56;15.15;;;8.40;;
30249;SDS011;17064;47.974;13.826;2023-01-19T09:35:56;14.48;;;7.25;;
30249;SDS011;17064;47.974;13.826;2023-01-19T09:40:58;15.85;;;6.63;;
30249;SDS011;17064;47.974;13.826;2023-01-19T09:46:00;15.32;;;5.78;;
30249;SDS011;17064;47.974;13.826;2023-01-19T09:51:03;10.57;;;4.95;;
30249;SDS011;17064;47.974;13.826;2023-01-19T09:56:10;12.02;;;5.05;;
30249;SDS011;17064;47.974;13.826;2023-01-19T10:06:42;11.85;;;5.18;;
30249;SDS011;17064;47.974;13.826;2023-01-19T10:11:56;9.68;;;5.22;;
30249;SDS011;17064;47.974;13.826;2023-01-19T10:17:19;9.75;;;4.88;;
30249;SDS011;17064;47.974;13.826;2023-01-19T10:22:26;9.73;;;4.10;;
30249;SDS011;17064;47.974;13.826;2023-01-19T10:27:28;8.80;;;4.63;;
30249;SDS011;17064;47.974;13.826;2023-01-19T10:32:33;9.27;;;4.40;;
30249;SDS011;17064;47.974;13.826;2023-01-19T10:37:36;12.93;;;4.97;;
30249;SDS011;17064;47.974;13.826;2023-01-19T10:42:39;9.18;;;4.63;;
30249;SDS011;17064;47.974;13.826;2023-01-19T10:47:41;10.95;;;4.70;;
30249;SDS011;17064;47.974;13.826;2023-01-19T10:52:43;12.85;;;4.93;;
30249;SDS011;17064;47.974;13.826;2023-01-19T10:57:50;9.95;;;5.78;;
30249;SDS011;17064;47.974;13.826;2023-01-19T11:02:52;11.05;;;5.13;;
30249;SDS011;17064;47.974;13.826;2023-01-19T11:07:53;20.83;;;6.75;;
30249;SDS011;17064;47.974;13.826;2023-01-19T11:12:59;11.48;;;6.53;;
30249;SDS011;17064;47.974;13.826;2023-01-19T11:18:21;14.65;;;6.55;;
30249;SDS011;17064;47.974;13.826;2023-01-19T11:23:29;12.02;;;6.70;;
30249;SDS011;17064;47.974;13.826;2023-01-19T11:28:42;12.70;;;6.53;;
30249;SDS011;17064;47.974;13.826;2023-01-19T11:33:48;12.77;;;6.72;;
30249;SDS011;17064;47.974;13.826;2023-01-19T11:38:54;16.50;;;7.30;;
30249;SDS011;17064;47.974;13.826;2023-01-19T11:44:12;18.38;;;8.15;;
30249;SDS011;17064;47.974;13.826;2023-01-19T11:49:19;19.60;;;8.43;;
30249;SDS011;17064;47.974;13.826;2023-01-19T11:54:28;15.13;;;8.07;;
30249;SDS011;17064;47.974;13.826;2023-01-19T11:59:32;19.08;;;8.57;;
30249;SDS011;17064;47.974;13.826;2023-01-19T12:04:34;15.38;;;7.88;;
30249;SDS011;17064;47.974;13.826;2023-01-19T12:09:42;18.95;;;9.20;;
30249;SDS011;17064;47.974;13.826;2023-01-19T12:15:04;20.08;;;9.35;;
30249;SDS011;17064;47.974;13.826;2023-01-19T12:20:36;20.42;;;10.00;;
30249;SDS011;17064;47.974;13.826;2023-01-19T12:30:50;21.40;;;9.27;;
30249;SDS011;17064;47.974;13.826;2023-01-19T12:35:58;21.60;;;9.77;;
30249;SDS011;17064;47.974;13.826;2023-01-19T12:46:37;16.77;;;8.95;;
30249;SDS011;17064;47.974;13.826;2023-01-19T12:51:38;18.15;;;9.50;;
30249;SDS011;17064;47.974;13.826;2023-01-19T12:56:39;16.17;;;9.38;;
30249;SDS011;17064;47.974;13.826;2023-01-19T13:01:40;20.15;;;10.55;;
30249;SDS011;17064;47.974;13.826;2023-01-19T13:17:23;19.65;;;9.70;;
30249;SDS011;17064;47.974;13.826;2023-01-19T13:27:48;18.70;;;10.55;;
30249;SDS011;17064;47.974;13.826;2023-01-19T13:32:49;22.23;;;9.93;;
30249;SDS011;17064;47.974;13.826;2023-01-19T13:37:50;17.40;;;9.60;;
30249;SDS011;17064;47.974;13.826;2023-01-19T13:42:52;16.73;;;9.68;;
30249;SDS011;17064;47.974;13.826;2023-01-19T13:47:53;20.02;;;8.32;;
30249;SDS011;17064;47.974;13.826;2023-01-19T13:52:57;15.20;;;7.97;;
30249;SDS011;17064;47.974;13.826;2023-01-19T13:57:58;15.00;;;8.25;;
30249;SDS011;17064;47.974;13.826;2023-01-19T14:08:18;18.30;;;9.70;;
30249;SDS011;17064;47.974;13.826;2023-01-19T14:13:21;13.13;;;7.22;;
30249;SDS011;17064;47.974;13.826;2023-01-19T14:18:30;22.52;;;8.95;;
30249;SDS011;17064;47.974;13.826;2023-01-19T14:23:49;15.13;;;7.93;;
30249;SDS011;17064;47.974;13.826;2023-01-19T14:28:56;12.40;;;7.63;;
30249;SDS011;17064;47.974;13.826;2023-01-19T14:33:57;14.70;;;7.97;;
30249;SDS011;17064;47.974;13.826;2023-01-19T14:38:58;16.58;;;9.25;;
30249;SDS011;17064;47.974;13.826;2023-01-19T14:44:00;12.43;;;8.02;;
30249;SDS011;17064;47.974;13.826;2023-01-19T14:49:03;13.80;;;7.80;;
30249;SDS011;17064;47.974;13.826;2023-01-19T14:54:10;22.48;;;8.95;;
30249;SDS011;17064;47.974;13.826;2023-01-19T14:59:16;14.07;;;8.38;;
30249;SDS011;17064;47.974;13.826;2023-01-19T15:04:17;14.50;;;8.32;;
30249;SDS011;17064;47.974;13.826;2023-01-19T15:09:18;17.20;;;8.45;;
30249;SDS011;17064;47.974;13.826;2023-01-19T15:14:19;15.60;;;7.88;;
30249;SDS011;17064;47.974;13.826;2023-01-19T15:19:20;14.05;;;7.55;;
30249;SDS011;17064;47.974;13.826;2023-01-19T15:24:21;12.73;;;6.53;;
30249;SDS011;17064;47.974;13.826;2023-01-19T15:29:22;13.45;;;6.28;;
30249;SDS011;17064;47.974;13.826;2023-01-19T15:34:25;13.53;;;7.33;;
30249;SDS011;17064;47.974;13.826;2023-01-19T15:39:25;18.02;;;7.20;;
30249;SDS011;17064;47.974;13.826;2023-01-19T15:44:26;15.65;;;8.25;;
30249;SDS011;17064;47.974;13.826;2023-01-19T15:49:27;14.65;;;7.85;;
30249;SDS011;17064;47.974;13.826;2023-01-19T15:54:29;13.90;;;7.17;;
30249;SDS011;17064;47.974;13.826;2023-01-19T15:59:30;15.00;;;6.72;;
30249;SDS011;17064;47.974;13.826;2023-01-19T16:04:31;12.77;;;7.22;;
30249;SDS011;17064;47.974;13.826;2023-01-19T16:09:32;14.75;;;7.43;;
30249;SDS011;17064;47.974;13.826;2023-01-19T16:14:32;15.95;;;7.07;;
30249;SDS011;17064;47.974;13.826;2023-01-19T16:19:33;14.60;;;7.10;;
30249;SDS011;17064;47.974;13.826;2023-01-19T16:24:34;17.10;;;8.23;;
30249;SDS011;17064;47.974;13.826;2023-01-19T16:29:34;17.55;;;7.93;;
30249;SDS011;17064;47.974;13.826;2023-01-19T16:34:35;17.13;;;7.30;;
30249;SDS011;17064;47.974;13.826;2023-01-19T16:39:36;17.50;;;7.85;;
30249;SDS011;17064;47.974;13.826;2023-01-19T16:44:37;11.80;;;6.75;;
30249;SDS011;17064;47.974;13.826;2023-01-19T16:49:38;14.07;;;6.65;;
30249;SDS011;17064;47.974;13.826;2023-01-19T16:54:42;14.45;;;6.15;;
30249;SDS011;17064;47.974;13.826;2023-01-19T16:59:43;22.70;;;9.15;;
30249;SDS011;17064;47.974;13.826;2023-01-19T17:04:44;14.80;;;7.25;;
30249;SDS011;17064;47.974;13.826;2023-01-19T17:09:45;11.90;;;6.65;;
30249;SDS011;17064;47.974;13.826;2023-01-19T17:14:46;11.07;;;6.72;;
30249;SDS011;17064;47.974;13.826;2023-01-19T17:19:48;11.68;;;6.57;;
30249;SDS011;17064;47.974;13.826;2023-01-19T17:24:49;13.70;;;6.10;;
30249;SDS011;17064;47.974;13.826;2023-01-19T17:29:50;15.45;;;6.88;;
30249;SDS011;17064;47.974;13.826;2023-01-19T17:34:51;12.13;;;5.95;;
30249;SDS011;17064;47.974;13.826;2023-01-19T17:39:53;16.63;;;6.05;;
30249;SDS011;17064;47.974;13.826;2023-01-19T17:44:54;13.32;;;6.22;;
30249;SDS011;17064;47.974;13.826;2023-01-19T17:49:55;11.88;;;6.43;;
30249;SDS011;17064;47.974;13.826;2023-01-19T17:54:56;18.00;;;6.97;;
30249;SDS011;17064;47.974;13.826;2023-01-19T17:59:57;10.98;;;6.20;;
30249;SDS011;17064;47.974;13.826;2023-01-19T18:04:59;14.40;;;6.97;;
30249;SDS011;17064;47.974;13.826;2023-01-19T18:10:01;11.47;;;6.60;;
30249;SDS011;17064;47.974;13.826;2023-01-19T18:15:06;9.50;;;5.80;;
30249;SDS011;17064;47.974;13.826;2023-01-19T18:20:08;10.40;;;6.45;;
30249;SDS011;17064;47.974;13.826;2023-01-19T18:25:09;13.10;;;6.00;;
30249;SDS011;17064;47.974;13.826;2023-01-19T18:30:10;11.82;;;6.75;;
30249;SDS011;17064;47.974;13.826;2023-01-19T18:35:14;14.23;;;7.65;;
30249;SDS011;17064;47.974;13.826;2023-01-19T18:40:16;15.75;;;7.78;;
30249;SDS011;17064;47.974;13.826;2023-01-19T18:45:17;20.23;;;9.82;;
30249;SDS011;17064;47.974;13.826;2023-01-19T18:50:19;18.60;;;8.82;;
30249;SDS011;17064;47.974;13.826;2023-01-19T18:55:20;14.63;;;7.57;;
30249;SDS011;17064;47.974;13.826;2023-01-19T19:00:21;12.48;;;6.55;;
30249;SDS011;17064;47.974;13.826;2023-01-19T19:05:23;13.50;;;6.82;;
30249;SDS011;17064;47.974;13.826;2023-01-19T19:10:24;14.20;;;7.13;;
30249;SDS011;17064;47.974;13.826;2023-01-19T19:15:25;14.10;;;7.00;;
30249;SDS011;17064;47.974;13.826;2023-01-19T19:20:27;16.60;;;8.77;;
30249;SDS011;17064;47.974;13.826;2023-01-19T19:25:28;11.00;;;7.05;;
30249;SDS011;17064;47.974;13.826;2023-01-19T19:30:31;14.85;;;7.28;;
30249;SDS011;17064;47.974;13.826;2023-01-19T19:35:34;16.83;;;7.30;;
30249;SDS011;17064;47.974;13.826;2023-01-19T19:40:35;15.55;;;7.72;;
30249;SDS011;17064;47.974;13.826;2023-01-19T19:45:37;17.10;;;7.13;;
30249;SDS011;17064;47.974;13.826;2023-01-19T19:50:38;10.43;;;6.38;;
30249;SDS011;17064;47.974;13.826;2023-01-19T19:55:39;12.98;;;6.28;;
30249;SDS011;17064;47.974;13.826;2023-01-19T20:00:40;14.00;;;7.00;;
30249;SDS011;17064;47.974;13.826;2023-01-19T20:05:45;44.03;;;16.38;;
30249;SDS011;17064;47.974;13.826;2023-01-19T20:10:46;33.92;;;12.43;;
30249;SDS011;17064;47.974;13.826;2023-01-19T20:15:48;15.43;;;7.95;;
30249;SDS011;17064;47.974;13.826;2023-01-19T20:20:49;15.93;;;8.00;;
30249;SDS011;17064;47.974;13.826;2023-01-19T20:25:51;10.90;;;6.20;;
30249;SDS011;17064;47.974;13.826;2023-01-19T20:30:52;17.50;;;6.32;;
30249;SDS011;17064;47.974;13.826;2023-01-19T20:35:54;13.73;;;6.70;;
30249;SDS011;17064;47.974;13.826;2023-01-19T20:40:55;10.35;;;5.35;;
30249;SDS011;17064;47.974;13.826;2023-01-19T20:45:57;13.98;;;5.90;;
30249;SDS011;17064;47.974;13.826;2023-01-19T20:50:59;10.87;;;6.27;;
30249;SDS011;17064;47.974;13.826;2023-01-19T20:56:02;12.75;;;6.78;;
30249;SDS011;17064;47.974;13.826;2023-01-19T21:01:15;13.88;;;6.97;;
30249;SDS011;17064;47.974;13.826;2023-01-19T21:06:18;12.20;;;5.88;;
30249;SDS011;17064;47.974;13.826;2023-01-19T21:11:20;11.32;;;5.60;;
30249;SDS011;17064;47.974;13.826;2023-01-19T21:16:23;10.80;;;4.95;;
30249;SDS011;17064;47.974;13.826;2023-01-19T21:21:25;9.48;;;4.22;;
30249;SDS011;17064;47.974;13.826;2023-01-19T21:26:26;13.25;;;5.38;;
30249;SDS011;17064;47.974;13.826;2023-01-19T21:31:32;11.77;;;5.55;;
30249;SDS011;17064;47.974;13.826;2023-01-19T21:36:33;10.73;;;5.57;;
30249;SDS011;17064;47.974;13.826;2023-01-19T21:41:34;11.68;;;5.15;;
30249;SDS011;17064;47.974;13.826;2023-01-19T21:46:34;11.80;;;5.93;;
30249;SDS011;17064;47.974;13.826;2023-01-19T21:51:35;9.35;;;4.97;;
30249;SDS011;17064;47.974;13.826;2023-01-19T21:56:36;9.98;;;4.60;;
30249;SDS011;17064;47.974;13.826;2023-01-19T22:01:38;10.27;;;5.22;;
30249;SDS011;17064;47.974;13.826;2023-01-19T22:06:39;10.43;;;4.63;;
30249;SDS011;17064;47.974;13.826;2023-01-19T22:11:40;9.05;;;3.92;;
30249;SDS011;17064;47.974;13.826;2023-01-19T22:16:41;8.60;;;4.43;;
30249;SDS011;17064;47.974;13.826;2023-01-19T22:21:41;14.52;;;3.80;;
30249;SDS011;17064;47.974;13.826;2023-01-19T22:26:42;9.77;;;3.95;;
30249;SDS011;17064;47.974;13.826;2023-01-19T22:31:43;7.30;;;3.45;;
30249;SDS011;17064;47.974;13.826;2023-01-19T22:36:44;6.95;;;3.80;;
30249;SDS011;17064;47.974;13.826;2023-01-19T22:41:45;6.53;;;3.45;;
30249;SDS011;17064;47.974;13.826;2023-01-19T22:46:46;6.93;;;3.17;;
30249;SDS011;17064;47.974;13.826;2023-01-19T22:51:48;6.38;;;3.25;;
30249;SDS011;17064;47.974;13.826;2023-01-19T22:56:49;10.93;;;3.65;;
30249;SDS011;17064;47.974;13.826;2023-01-19T23:01:50;7.22;;;3.35;;
30249;SDS011;17064;47.974;13.826;2023-01-19T23:06:50;5.78;;;2.47;;
30249;SDS011;17064;47.974;13.826;2023-01-19T23:11:51;6.40;;;2.90;;
30249;SDS011;17064;47.974;13.826;2023-01-19T23:16:52;5.57;;;3.10;;
30249;SDS011;17064;47.974;13.826;2023-01-19T23:21:53;6.22;;;3.35;;
30249;SDS011;17064;47.974;13.826;2023-01-19T23:26:53;8.65;;;3.13;;
30249;SDS011;17064;47.974;13.826;2023-01-19T23:31:54;11.98;;;3.30;;
30249;SDS011;17064;47.974;13.826;2023-01-19T23:36:55;8.23;;;4.45;;
30249;SDS011;17064;47.974;13.826;2023-01-19T23:41:56;9.40;;;4.22;;
30249;SDS011;17064;47.974;13.826;2023-01-19T23:46:57;13.77;;;5.28;;
30249;SDS011;17064;47.974;13.826;2023-01-19T23:51:58;13.95;;;5.88;;
30249;SDS011;17064;47.974;13.826;2023-01-19T23:56:58;10.90;;;5.35;;
